Condiciones actuales en los principales Aeropuertos de España-Datos Metar

 

LEAL - Alicante
Actualización: 21/06/2021 11:30
Despejado
Despejado
 Viento del varies
Viento: varies 7 km/h
Temperatura: 29°C
Rocío: 12°C
Humedad: 35%
Barómetro: 1010 hPa
Resumen: Despejado
Visibilidad: greater than 10 km
2021/06/21 09:30 LEAL 210930Z VRB04KT CAVOK 29/12 Q1010 NOSIG
LEAB - Albacete
Actualización: 21/06/2021 11:30
Partly Cloudy
Partly Cloudy
 Viento del O
Viento: O 19 km/h
Temperatura: 21°C
Rocío: 10°C
Humedad: 50%
Barómetro: 1014 hPa
Nubosidad: Partly Cloudy
Visibilidad: 10 km
Cloud details: Partly Cloudy 1219 m
2021/06/21 09:30 LEAB 210930Z 28010KT 240V350 9999 SCT040 21/10 Q1014 NOSIG
LEAM - Almería
Actualización: 21/06/2021 11:30
Despejado
Despejado
 Viento del S
Viento: S 13 km/h
Temperatura: 22°C
Rocío: 16°C
Humedad: 69%
Barómetro: 1011 hPa
Resumen: Despejado
Visibilidad: greater than 10 km
2021/06/21 09:30 LEAM 210930Z 19007KT CAVOK 22/16 Q1011
 
LEAS - Asturias/Aviles
Actualización: 21/06/2021 11:30
Mostly Cloudy
Mostly Cloudy
 Viento del OSO
Viento: OSO 15 km/h
Temperatura: 17°C
Rocío: 12°C
Humedad: 73%
Barómetro: 1009 hPa
Nubosidad: Mostly Cloudy
Visibilidad: 10 km
Cloud details: Mostly Cloudy 914 m
2021/06/21 09:30 LEAS 210930Z 25008KT 9999 BKN030 17/12 Q1009 NOSIG
LEBZ - Badajoz/Talavera la Real
Actualización: 21/06/2021 11:30
Mostly Cloudy
Mostly Cloudy
 Viento del OSO
Viento: OSO 17 km/h
Temperatura: 19°C
Rocío: 13°C
Humedad: 68%
Barómetro: 1015 hPa
Nubosidad: Mostly Cloudy
Visibilidad: 10 km
Cloud details: Partly Cloudy 792 m
Mostly Cloudy 1494 m
2021/06/21 09:30 LEBZ 210930Z 25009KT 9999 SCT026 BKN049 19/13 Q1015
LEBL - Barcelona
Actualización: 21/06/2021 11:30
Few Clouds
Few Clouds
 Viento del S
Viento: S 20 km/h
Temperatura: 25°C
Rocío: 17°C
Humedad: 61%
Barómetro: 1009 hPa
Nubosidad: Few Clouds
Visibilidad: 10 km
Cloud details: Few Clouds 671 m
2021/06/21 09:30 LEBL 210930Z 19011KT 9999 FEW022 25/17 Q1009 NOSIG
 
LEBB - Bilbao
Actualización: 21/06/2021 11:30
Partly Cloudy
Partly Cloudy
 Viento del O
Viento: O 7 km/h
Temperatura: 21°C
Rocío: 12°C
Humedad: 57%
Barómetro: 1009 hPa
Nubosidad: Partly Cloudy
Visibilidad: 10 km
Cloud details: Few Clouds 1646 m
Partly Cloudy 2134 m
2021/06/21 09:30 LEBB 210930Z 28004KT 230V040 9999 FEW054 SCT070 21/12 Q1009 NOSIG
LEBG - Burgos/Villafría
Actualización: 21/06/2021 11:30
Mostly Cloudy
Mostly Cloudy
 Viento del SO
Viento: SO 24 km/h
Temperatura: 13°C
Rocío: 11°C
Humedad: 88%
Barómetro: 1012 hPa
Nubosidad: Mostly Cloudy
Visibilidad: 10 km
Cloud details: Mostly Cloudy 457 m
2021/06/21 09:30 LEBG 210930Z 22013KT 9999 BKN015 13/11 Q1012
LEBA - Córdoba
Actualización: 21/06/2021 11:30
Partly Cloudy
Partly Cloudy
 Viento del SO
Viento: SO 20 km/h
Temperatura: 23°C
Rocío: 10°C
Humedad: 44%
Barómetro: 1014 hPa
Nubosidad: Partly Cloudy
Visibilidad: 10 km
Cloud details: Partly Cloudy 1219 m
2021/06/21 09:30 LEBA 210930Z 23011KT 200V260 9999 SCT040 23/10 Q1014
 
LEGE - Gerona
Actualización: 21/06/2021 11:30
Few Clouds
Few Clouds
 Viento del O
Viento: O 22 km/h
Temperatura: 29°C
Rocío: 9°C
Humedad: 29%
Barómetro: 1008 hPa
Nubosidad: Few Clouds
Visibilidad: 10 km
Cloud details: Few Clouds 2499 m
2021/06/21 09:30 LEGE 210930Z 26012KT 220V330 9999 FEW082 29/09 Q1008
LEGR - Granada
Actualización: 21/06/2021 11:30
Few Clouds
Few Clouds
 Viento del varies
Viento: varies 7 km/h
Temperatura: 22°C
Rocío: 10°C
Humedad: 47%
Barómetro: 1015 hPa
Nubosidad: Few Clouds
Visibilidad: 10 km
Cloud details: Few Clouds 1219 m
2021/06/21 09:30 LEGR 210930Z VRB04KT 9999 FEW040 22/10 Q1015
GCHI - Hierro
Actualización: 21/06/2021 11:30
Mostly Cloudy
Mostly Cloudy
 Viento del NNO
Viento: NNO 28 km/h
Temperatura: 23°C
Rocío: 17°C
Humedad: 69%
Barómetro: 1020 hPa
Nubosidad: Mostly Cloudy
Visibilidad: 10 km
Cloud details: Few Clouds 762 m
Mostly Cloudy 914 m
2021/06/21 09:30 GCHI 210930Z 34015KT 9999 FEW025 BKN030 23/17 Q1020
 
LEIB - Ibiza
Actualización: 21/06/2021 11:30
Few Clouds
Few Clouds
 Viento del SO
Viento: SO 20 km/h
Temperatura: 25°C
Rocío: 20°C
Humedad: 74%
Barómetro: 1010 hPa
Nubosidad: Few Clouds
Visibilidad: 10 km
Cloud details: Few Clouds 366 m
2021/06/21 09:30 LEIB 210930Z 22011KT 190V250 9999 FEW012 25/20 Q1010 NOSIG
LEJR - Jerez de la Frontera
Actualización: 21/06/2021 12:00
Mostly Cloudy
Mostly Cloudy
 Viento del NO
Viento: NO 13 km/h, Racha: 31 km/h
Temperatura: 21°C
Rocío: 10°C
Humedad: 50%
Barómetro: 1016 hPa
Nubosidad: Mostly Cloudy
Visibilidad: 10 km
Cloud details: Mostly Cloudy 1280 m
2021/06/21 10:00 LEJR 211000Z 32007G17KT 270V360 9999 BKN042 21/10 Q1016
LECO - A Coruña
Actualización: 21/06/2021 11:30
Mostly Cloudy
Mostly Cloudy
 Viento del NO
Viento: NO 15 km/h
Temperatura: 15°C
Rocío: 15°C
Humedad: 100%
Barómetro: 1011 hPa
Nubosidad: Mostly Cloudy
Visibilidad: 10 km
Cloud details: Mostly Cloudy 305 m
Mostly Cloudy 549 m
2021/06/21 09:30 LECO 210930Z 31008KT 250V360 9999 BKN010 BKN018 15/15 Q1011 TEMPO 3000 RA
 
GCLA - La Palma
Actualización: 21/06/2021 11:30
Mostly Cloudy
Mostly Cloudy
 Viento del NE
Viento: NE 11 km/h
Temperatura: 22°C
Rocío: 19°C
Humedad: 83%
Barómetro: 1020 hPa
Nubosidad: Mostly Cloudy
Visibilidad: 10 km
Cloud details: Few Clouds 549 m
Mostly Cloudy 884 m
2021/06/21 09:30 GCLA 210930Z 04006KT 350V110 9999 FEW018 BKN029 22/19 Q1020
GCRR - Lanzarote
Actualización: 21/06/2021 11:30
Mostly Cloudy
Mostly Cloudy
 Viento del N
Viento: N 28 km/h
Temperatura: 23°C
Rocío: 17°C
Humedad: 69%
Barómetro: 1018 hPa
Nubosidad: Mostly Cloudy
Visibilidad: 10 km
Cloud details: Few Clouds 549 m
Mostly Cloudy 914 m
2021/06/21 09:30 GCRR 210930Z 36015KT 9999 FEW018 BKN030 23/17 Q1018
GCLP - Las Palmas
Actualización: 21/06/2021 11:30
Mostly Cloudy
Mostly Cloudy
 Viento del N
Viento: N 30 km/h
Temperatura: 23°C
Rocío: 16°C
Humedad: 65%
Barómetro: 1019 hPa
Nubosidad: Mostly Cloudy
Visibilidad: 10 km
Cloud details: Mostly Cloudy 914 m
2021/06/21 09:30 GCLP 210930Z 36016KT 9999 BKN030 23/16 Q1019 NOSIG
 
LELN - León
Actualización: 21/06/2021 11:30
Mostly Cloudy
Mostly Cloudy
 Viento del O
Viento: O 11 km/h
Temperatura: 12°C
Rocío: 8°C
Humedad: 77%
Barómetro: 1011 hPa
Nubosidad: Mostly Cloudy
Visibilidad: 10 km
Cloud details: Partly Cloudy 549 m
Mostly Cloudy 914 m
2021/06/21 09:30 LELN 210930Z 27006KT 230V320 9999 SCT018 BKN030 12/08 Q1011
LELO - Logroño
Actualización: 21/06/2021 11:30
Few Clouds
Few Clouds
 Viento del O
Viento: O 13 km/h
Temperatura: 21°C
Rocío: 7°C
Humedad: 40%
Barómetro: 1010 hPa
Nubosidad: Few Clouds
Visibilidad: 10 km
Cloud details: Few Clouds 1676 m
2021/06/21 09:30 LELO 210930Z 26007KT 210V320 9999 FEW055 21/07 Q1010
LECV - Madrid/Colmenar
Actualización: 21/06/2021 11:30
Mostly Cloudy
Mostly Cloudy
 Viento del OSO
Viento: OSO 11 km/h
Temperatura: 16°C
Rocío: 7°C
Humedad: 55%
Barómetro: 1013 hPa
Nubosidad: Mostly Cloudy
Visibilidad: 10 km
Cloud details: Mostly Cloudy 1067 m
2021/06/21 09:30 LECV 210930Z 24006KT 9999 BKN035 16/07 Q1013
 
LEMD - Madrid/Barajas
Actualización: 21/06/2021 11:30
Few Clouds
Few Clouds
 Viento del SO
Viento: SO 19 km/h
Temperatura: 19°C
Rocío: 8°C
Humedad: 49%
Barómetro: 1013 hPa
Nubosidad: Few Clouds
Visibilidad: 10 km
Cloud details: Few Clouds 1524 m
2021/06/21 09:30 LEMD 210930Z 22010KT 9999 FEW050 19/08 Q1013 NOSIG
LEVS - Madrid/Cuatro Vientos
Actualización: 21/06/2021 11:30
Few Clouds
Few Clouds
 Viento del SO
Viento: SO 28 km/h
Temperatura: 18°C
Rocío: 9°C
Humedad: 56%
Barómetro: 1013 hPa
Nubosidad: Few Clouds
Visibilidad: 10 km
Cloud details: Few Clouds 914 m
2021/06/21 09:30 LEVS 210930Z 23015KT 9999 FEW030 18/09 Q1013
LEGT - Madrid/Getafe
Actualización: 21/06/2021 11:30
Few Clouds
Few Clouds
 Viento del SO
Viento: SO 30 km/h
Temperatura: 18°C
Rocío: 8°C
Humedad: 52%
Barómetro: 1014 hPa
Nubosidad: Few Clouds
Visibilidad: 10 km
Cloud details: Few Clouds 945 m
2021/06/21 09:30 LEGT 210930Z 23016KT 9999 FEW031 18/08 Q1014
 
LETO - Madrid/Torrejón
Actualización: 21/06/2021 11:30
Few Clouds
Few Clouds
 Viento del SSO
Viento: SSO 20 km/h
Temperatura: 16°C
Rocío: 7°C
Humedad: 55%
Barómetro: 1013 hPa
Nubosidad: Few Clouds
Visibilidad: 10 km
Cloud details: Few Clouds 1219 m
2021/06/21 09:30 LETO 210930Z 21011KT 180V260 9999 FEW040 16/07 Q1013 NOSIG
LEMG - Málaga
Actualización: 21/06/2021 11:30
Few Clouds
Few Clouds
 Viento del SSE
Viento: SSE 15 km/h
Temperatura: 25°C
Rocío: 15°C
Humedad: 54%
Barómetro: 1013 hPa
Nubosidad: Few Clouds
Visibilidad: 10 km
Cloud details: Few Clouds 1524 m
2021/06/21 09:30 LEMG 210930Z 15008KT 120V210 9999 FEW050 25/15 Q1013 NOSIG
GEML - Melilla
Actualización: 21/06/2021 11:30
Few Clouds
Few Clouds
 Viento del O
Viento: O 20 km/h, Racha: 39 km/h
Temperatura: 22°C
Rocío: 14°C
Humedad: 61%
Barómetro: 1015 hPa
Nubosidad: Few Clouds
Visibilidad: 10 km
Cloud details: Few Clouds 457 m
2021/06/21 09:30 GEML 210930Z 27011G21KT 230V330 9999 FEW015 22/14 Q1015
 
LEMH - Mahón
Actualización: 21/06/2021 11:30
Few Clouds
Few Clouds
 Viento del SSO
Viento: SSO 22 km/h
Temperatura: 25°C
Rocío: 19°C
Humedad: 69%
Barómetro: 1011 hPa
Nubosidad: Few Clouds
Visibilidad: 10 km
Cloud details: Few Clouds 335 m
2021/06/21 09:30 LEMH 210930Z 21012KT 170V240 9999 FEW011 25/19 Q1011
LEMO - Morón de La Frontera
Actualización: 21/06/2021 12:00
Partly Cloudy
Partly Cloudy
 Viento del O
Viento: O 11 km/h, Racha: 30 km/h
Temperatura: 21°C
Rocío: 8°C
Humedad: 43%
Barómetro: 1016 hPa
Nubosidad: Partly Cloudy
Visibilidad: 10 km
Cloud details: Partly Cloudy 1280 m
2021/06/21 10:00 LEMO 211000Z 26006G16KT 200V340 9999 SCT042 21/08 Q1016 NOSIG
LEMI - Murcia/Corvera
Actualización: 21/06/2021 11:30
Despejado
Despejado
 Viento del S
Viento: S 7 km/h
Temperatura: 27°C
Heat Index: 27°C
Rocío: 13°C
Humedad: 42%
Barómetro: 1011 hPa
Resumen: Despejado
Visibilidad: greater than 10 km
2021/06/21 09:30 LEMI 210930Z 17004KT 110V230 CAVOK 27/13 Q1011
 
LERI - Murcia/Alcantarilla
Actualización: 21/06/2021 11:30
Despejado
Despejado
 Viento del varies
Viento: varies 6 km/h
Temperatura: 27°C
Rocío: 12°C
Humedad: 39%
Barómetro: 1011 hPa
Resumen: Despejado
Visibilidad: greater than 10 km
2021/06/21 09:30 LERI 210930Z VRB03KT CAVOK 27/12 Q1011 NOSIG
LELC - Murcia/San Javier
Actualización: 21/06/2021 11:30
Despejado
Despejado
 Viento del SE
Viento: SE 9 km/h
Temperatura: 28°C
Heat Index: 28°C
Rocío: 15°C
Humedad: 45%
Barómetro: 1011 hPa
Resumen: Despejado
Visibilidad: greater than 10 km
2021/06/21 09:30 LELC 210930Z 13005KT 100V170 CAVOK 28/15 Q1011 NOSIG
LEPA - Palma de Mallorca
Actualización: 21/06/2021 11:30
Partly Cloudy
Partly Cloudy
 Viento del SO
Viento: SO 17 km/h
Temperatura: 25°C
Rocío: 20°C
Humedad: 74%
Barómetro: 1010 hPa
Nubosidad: Partly Cloudy
Visibilidad: 10 km
Cloud details: Partly Cloudy 549 m
2021/06/21 09:30 LEPA 210930Z 22009KT 180V260 9999 SCT018 25/20 Q1010 NOSIG
 
LEPP - Pamplona
Actualización: 21/06/2021 11:30
Mostly Cloudy
Mostly Cloudy
 Viento del SSE
Viento: SSE 15 km/h
Temperatura: 19°C
Rocío: 9°C
Humedad: 52%
Barómetro: 1010 hPa
Nubosidad: Mostly Cloudy
Visibilidad: 10 km
Cloud details: Partly Cloudy 1372 m
Mostly Cloudy 1524 m
2021/06/21 09:30 LEPP 210930Z 16008KT 120V200 9999 SCT045 BKN050 19/09 Q1010
LERS - Reus
Actualización: 21/06/2021 11:30
Few Clouds
Few Clouds
 Viento del SSO
Viento: SSO 9 km/h
Temperatura: 27°C
Heat Index: 27°C
Rocío: 14°C
Humedad: 45%
Barómetro: 1009 hPa
Nubosidad: Few Clouds
Visibilidad: 10 km
Cloud details: Few Clouds 1524 m
2021/06/21 09:30 LERS 210930Z 21005KT 120V290 9999 FEW050 27/14 Q1009
LERT - Rota
Actualización: 21/06/2021 11:30
Partly Cloudy
Partly Cloudy
 Viento del NO
Viento: NO 17 km/h
Temperatura: 20°C
Rocío: 11°C
Humedad: 56%
Barómetro: 1016 hPa
Nubosidad: Partly Cloudy
Visibilidad: 10 km
Cloud details: Few Clouds 762 m
Partly Cloudy 1219 m
2021/06/21 09:30 LERT 210930Z 31009KT 260V350 9999 FEW025 SCT040 20/11 Q1016 NOSIG
 
LELL - Sabadell
Actualización: 21/06/2021 11:30
Few Clouds
Few Clouds
 Viento del O
Viento: O 19 km/h
Temperatura: 36°C
Rocío: 18°C
Humedad: 34%
Barómetro: 1009 hPa
Nubosidad: Few Clouds
Visibilidad: 10 km
Cloud details: Few Clouds 1067 m
2021/06/21 09:30 LELL 210930Z 26010KT 210V290 9999 FEW035 36/18 Q1009
LESA - Salamanca
Actualización: 21/06/2021 11:30
Mostly Cloudy
Mostly Cloudy
 Viento del SO
Viento: SO 24 km/h
Temperatura: 13°C
Rocío: 10°C
Humedad: 82%
Barómetro: 1013 hPa
Nubosidad: Mostly Cloudy
Visibilidad: 10 km
Cloud details: Partly Cloudy 427 m
Mostly Cloudy 549 m
2021/06/21 09:30 LESA 210930Z 23013KT 200V260 9999 SCT014 BKN018 13/10 Q1013
LESO - San Sebastián
Actualización: 21/06/2021 11:30
Despejado
Despejado
 Viento del OSO
Viento: OSO 20 km/h
Temperatura: 22°C
Rocío: 10°C
Humedad: 47%
Barómetro: 1008 hPa
Resumen: Despejado
Visibilidad: greater than 10 km
2021/06/21 09:30 LESO 210930Z 25011KT 200V290 CAVOK 22/10 Q1008
 
LEXJ - Santander
Actualización: 21/06/2021 11:30
Mostly Cloudy
Mostly Cloudy
 Viento del SO
Viento: SO 2 km/h
Temperatura: 20°C
Rocío: 14°C
Humedad: 69%
Barómetro: 1008 hPa
Nubosidad: Mostly Cloudy
Visibilidad: 10 km
Cloud details: Few Clouds 823 m
Mostly Cloudy 1219 m
2021/06/21 09:30 LEXJ 210930Z 23001KT 9999 FEW027 BKN040 20/14 Q1008
LEPA - Palma de Mallorca
Actualización: 21/06/2021 11:30
Partly Cloudy
Partly Cloudy
 Viento del SO
Viento: SO 17 km/h
Temperatura: 25°C
Rocío: 20°C
Humedad: 74%
Barómetro: 1010 hPa
Nubosidad: Partly Cloudy
Visibilidad: 10 km
Cloud details: Partly Cloudy 549 m
2021/06/21 09:30 LEPA 210930Z 22009KT 180V260 9999 SCT018 25/20 Q1010 NOSIG
LEPP - Pamplona
Actualización: 21/06/2021 11:30
Mostly Cloudy
Mostly Cloudy
 Viento del SSE
Viento: SSE 15 km/h
Temperatura: 19°C
Rocío: 9°C
Humedad: 52%
Barómetro: 1010 hPa
Nubosidad: Mostly Cloudy
Visibilidad: 10 km
Cloud details: Partly Cloudy 1372 m
Mostly Cloudy 1524 m
2021/06/21 09:30 LEPP 210930Z 16008KT 120V200 9999 SCT045 BKN050 19/09 Q1010
 
LEST - Santiago de Compostela
Actualización: 21/06/2021 11:30
Mostly Cloudy
Mostly Cloudy
 Viento del ONO
Viento: ONO 11 km/h
Temperatura: 14°C
Rocío: 12°C
Humedad: 88%
Barómetro: 1012 hPa
Nubosidad: Mostly Cloudy
Visibilidad: 10 km
Cloud details: Partly Cloudy 213 m
Partly Cloudy 366 m
Mostly Cloudy 762 m
2021/06/21 09:30 LEST 210930Z 30006KT 240V350 9999 SCT007 SCT012 BKN025 14/12 Q1012 TEMPO 3000 RA
LEZL - Sevilla
Actualización: 21/06/2021 11:30
Partly Cloudy
Partly Cloudy
 Viento del ONO
Viento: ONO 11 km/h
Temperatura: 21°C
Rocío: 9°C
Humedad: 46%
Barómetro: 1015 hPa
Nubosidad: Partly Cloudy
Visibilidad: 10 km
Cloud details: Partly Cloudy 1372 m
2021/06/21 09:30 LEZL 210930Z 30006KT 250V030 9999 SCT045 21/09 Q1015 NOSIG
GCXO - Tenerife
Actualización: 21/06/2021 11:45
Mostly Cloudy
Mostly Cloudy
 Viento del ONO
Viento: ONO 35 km/h
Temperatura: 18°C
Rocío: 17°C
Humedad: 94%
Barómetro: 1021 hPa
Nubosidad: Mostly Cloudy
Visibilidad: 10 km
Cloud details: Few Clouds 61 m
Mostly Cloudy 244 m
2021/06/21 09:45 GCXO 210945Z 29019KT 9999 FEW002 BKN008 18/17 Q1021 NOSIG
 
GCTS - Tenerife-Sur
Actualización: 21/06/2021 11:30
Few Clouds
Few Clouds
 Viento del SO
Viento: SO 9 km/h
Temperatura: 23°C
Rocío: 16°C
Humedad: 65%
Barómetro: 1019 hPa
Nubosidad: Few Clouds
Visibilidad: 10 km
Cloud details: Few Clouds 914 m
2021/06/21 09:30 GCTS 210930Z 22005KT 150V260 9999 FEW030 23/16 Q1019 NOSIG
LEVC - Valencia
Actualización: 21/06/2021 11:30
Few Clouds
Few Clouds
 Viento del O
Viento: O 22 km/h
Temperatura: 27°C
Rocío: 11°C
Humedad: 37%
Barómetro: 1010 hPa
Nubosidad: Few Clouds
Visibilidad: 10 km
Cloud details: Few Clouds 1067 m
2021/06/21 09:30 LEVC 210930Z 27012KT 240V300 9999 FEW035 27/11 Q1010 NOSIG
LEVD - Valladolid
Actualización: 21/06/2021 11:30
Mostly Cloudy
Mostly Cloudy
 Viento del SO
Viento: SO 19 km/h
Temperatura: 14°C
Rocío: 10°C
Humedad: 77%
Barómetro: 1012 hPa
Nubosidad: Mostly Cloudy
Visibilidad: 10 km
Cloud details: Partly Cloudy 610 m
Mostly Cloudy 1006 m
2021/06/21 09:30 LEVD 210930Z 23010KT 200V260 9999 SCT020 BKN033 14/10 Q1012
 
LEVX - Vigo
Actualización: 21/06/2021 11:30
Lluvia débil, Muy nuboso
Lluvia débil, Muy nuboso
 Viento del O
Viento: O 11 km/h
Temperatura: 15°C
Rocío: 13°C
Humedad: 88%
Barómetro: 1013 hPa
Resumen: Light Rain
Nubosidad: Mostly Cloudy
Visibilidad: 6 km
Cloud details: Partly Cloudy 213 m
Mostly Cloudy 366 m
Mostly Cloudy 610 m
2021/06/21 09:30 LEVX 210930Z 28006KT 220V340 6000 -RA SCT007 BKN012 BKN020 15/13 Q1013 NOSIG
LEVT - Vitoria
Actualización: 21/06/2021 11:30
Partly Cloudy
Partly Cloudy
 Viento del SO
Viento: SO 20 km/h
Temperatura: 17°C
Rocío: 9°C
Humedad: 59%
Barómetro: 1010 hPa
Nubosidad: Partly Cloudy
Visibilidad: 10 km
Cloud details: Partly Cloudy 1250 m
Partly Cloudy 1494 m
2021/06/21 09:30 LEVT 210930Z 22011KT 170V250 9999 SCT041 SCT049 17/09 Q1010
LEZG - Zaragoza
Actualización: 21/06/2021 11:30
Partly Cloudy
Partly Cloudy
 Viento del OSO
Viento: OSO 20 km/h
Temperatura: 23°C
Rocío: 9°C
Humedad: 41%
Barómetro: 1011 hPa
Nubosidad: Partly Cloudy
Visibilidad: 10 km
Cloud details: Few Clouds 1524 m
Partly Cloudy 2134 m
2021/06/21 09:30 LEZG 210930Z 24011KT 9999 FEW050 SCT070 23/09 Q1011

La estación de MeteoMurcia.com, publica sus datos en los siguientes proyectos:

Weather Underground PWS IMURCIAP2 Meteoclimatic www.awekas.at

W3Counter
Web Analytics